sensor_id;sensor_type;location;lat;lon;timestamp;P1;durP1;ratioP1;P2;durP2;ratioP2
72573;SDS011;60603;52.548;13.420;2023-04-30T00:00:19;9.77;;;2.83;;
72573;SDS011;60603;52.548;13.420;2023-04-30T00:03:05;6.10;;;1.95;;
72573;SDS011;60603;52.548;13.420;2023-04-30T00:05:31;7.22;;;2.60;;
72573;SDS011;60603;52.548;13.420;2023-04-30T00:07:56;7.82;;;2.20;;
72573;SDS011;60603;52.548;13.420;2023-04-30T00:10:22;4.70;;;1.88;;
72573;SDS011;60603;52.548;13.420;2023-04-30T00:12:48;7.93;;;2.03;;
72573;SDS011;60603;52.548;13.420;2023-04-30T00:15:14;11.57;;;1.95;;
72573;SDS011;60603;52.548;13.420;2023-04-30T00:17:39;4.85;;;1.75;;
72573;SDS011;60603;52.548;13.420;2023-04-30T00:20:05;5.60;;;1.83;;
72573;SDS011;60603;52.548;13.420;2023-04-30T00:22:31;4.80;;;1.75;;
72573;SDS011;60603;52.548;13.420;2023-04-30T00:24:57;8.13;;;2.17;;
72573;SDS011;60603;52.548;13.420;2023-04-30T00:27:23;7.05;;;1.88;;
72573;SDS011;60603;52.548;13.420;2023-04-30T00:29:49;9.65;;;1.70;;
72573;SDS011;60603;52.548;13.420;2023-04-30T00:32:14;4.15;;;1.70;;
72573;SDS011;60603;52.548;13.420;2023-04-30T00:34:40;9.77;;;2.15;;
72573;SDS011;60603;52.548;13.420;2023-04-30T00:37:06;4.95;;;1.70;;
72573;SDS011;60603;52.548;13.420;2023-04-30T00:39:32;4.43;;;1.80;;
72573;SDS011;60603;52.548;13.420;2023-04-30T00:41:57;5.07;;;1.40;;
72573;SDS011;60603;52.548;13.420;2023-04-30T00:44:23;6.40;;;1.48;;
72573;SDS011;60603;52.548;13.420;2023-04-30T00:46:49;3.95;;;1.55;;
72573;SDS011;60603;52.548;13.420;2023-04-30T00:49:14;6.13;;;2.33;;
72573;SDS011;60603;52.548;13.420;2023-04-30T00:51:40;9.18;;;1.85;;
72573;SDS011;60603;52.548;13.420;2023-04-30T00:54:06;5.10;;;1.88;;
72573;SDS011;60603;52.548;13.420;2023-04-30T00:56:32;7.00;;;1.70;;
72573;SDS011;60603;52.548;13.420;2023-04-30T00:58:58;5.95;;;1.48;;
72573;SDS011;60603;52.548;13.420;2023-04-30T01:01:24;6.72;;;1.83;;
72573;SDS011;60603;52.548;13.420;2023-04-30T01:03:51;6.47;;;1.73;;
72573;SDS011;60603;52.548;13.420;2023-04-30T01:06:16;5.03;;;1.60;;
72573;SDS011;60603;52.548;13.420;2023-04-30T01:08:42;6.32;;;1.85;;
72573;SDS011;60603;52.548;13.420;2023-04-30T01:12:12;5.93;;;1.75;;
72573;SDS011;60603;52.548;13.420;2023-04-30T01:14:26;4.88;;;2.20;;
72573;SDS011;60603;52.548;13.420;2023-04-30T01:19:39;7.30;;;1.73;;
72573;SDS011;60603;52.548;13.420;2023-04-30T01:22:08;7.15;;;1.83;;
72573;SDS011;60603;52.548;13.420;2023-04-30T01:24:43;5.68;;;1.92;;
72573;SDS011;60603;52.548;13.420;2023-04-30T01:29:54;5.72;;;1.85;;
72573;SDS011;60603;52.548;13.420;2023-04-30T01:32:20;5.88;;;1.52;;
72573;SDS011;60603;52.548;13.420;2023-04-30T01:34:46;5.55;;;2.08;;
72573;SDS011;60603;52.548;13.420;2023-04-30T01:37:15;6.50;;;1.80;;
72573;SDS011;60603;52.548;13.420;2023-04-30T01:40:08;5.63;;;2.05;;
72573;SDS011;60603;52.548;13.420;2023-04-30T01:48:48;8.15;;;2.40;;
72573;SDS011;60603;52.548;13.420;2023-04-30T01:51:29;6.82;;;2.30;;
72573;SDS011;60603;52.548;13.420;2023-04-30T01:53:58;4.97;;;2.13;;
72573;SDS011;60603;52.548;13.420;2023-04-30T01:56:31;7.50;;;1.88;;
72573;SDS011;60603;52.548;13.420;2023-04-30T01:59:04;7.65;;;2.15;;
72573;SDS011;60603;52.548;13.420;2023-04-30T02:01:31;5.82;;;1.92;;
72573;SDS011;60603;52.548;13.420;2023-04-30T02:03:57;10.45;;;2.78;;
72573;SDS011;60603;52.548;13.420;2023-04-30T02:06:24;8.55;;;2.40;;
72573;SDS011;60603;52.548;13.420;2023-04-30T02:08:54;8.07;;;2.33;;
72573;SDS011;60603;52.548;13.420;2023-04-30T02:11:21;6.68;;;2.17;;
72573;SDS011;60603;52.548;13.420;2023-04-30T02:13:49;6.00;;;2.00;;
72573;SDS011;60603;52.548;13.420;2023-04-30T02:16:15;6.53;;;1.95;;
72573;SDS011;60603;52.548;13.420;2023-04-30T02:18:41;6.78;;;2.03;;
72573;SDS011;60603;52.548;13.420;2023-04-30T02:21:07;6.38;;;2.28;;
72573;SDS011;60603;52.548;13.420;2023-04-30T02:23:32;7.60;;;2.15;;
72573;SDS011;60603;52.548;13.420;2023-04-30T02:25:58;7.45;;;2.25;;
72573;SDS011;60603;52.548;13.420;2023-04-30T02:28:24;6.57;;;2.58;;
72573;SDS011;60603;52.548;13.420;2023-04-30T02:30:49;5.47;;;2.30;;
72573;SDS011;60603;52.548;13.420;2023-04-30T02:33:15;5.82;;;2.10;;
72573;SDS011;60603;52.548;13.420;2023-04-30T02:35:41;7.28;;;2.30;;
72573;SDS011;60603;52.548;13.420;2023-04-30T02:38:06;11.25;;;2.33;;
72573;SDS011;60603;52.548;13.420;2023-04-30T02:40:32;5.95;;;2.20;;
72573;SDS011;60603;52.548;13.420;2023-04-30T02:42:58;10.95;;;2.40;;
72573;SDS011;60603;52.548;13.420;2023-04-30T02:45:25;5.35;;;2.08;;
72573;SDS011;60603;52.548;13.420;2023-04-30T02:47:51;7.97;;;2.95;;
72573;SDS011;60603;52.548;13.420;2023-04-30T02:50:17;7.90;;;2.53;;
72573;SDS011;60603;52.548;13.420;2023-04-30T02:52:44;6.03;;;2.10;;
72573;SDS011;60603;52.548;13.420;2023-04-30T02:55:10;6.30;;;2.78;;
72573;SDS011;60603;52.548;13.420;2023-04-30T02:57:36;13.20;;;2.47;;
72573;SDS011;60603;52.548;13.420;2023-04-30T03:00:02;7.57;;;2.20;;
72573;SDS011;60603;52.548;13.420;2023-04-30T03:02:28;6.45;;;2.28;;
72573;SDS011;60603;52.548;13.420;2023-04-30T03:04:53;6.80;;;2.05;;
72573;SDS011;60603;52.548;13.420;2023-04-30T03:07:19;9.25;;;2.30;;
72573;SDS011;60603;52.548;13.420;2023-04-30T03:09:45;10.15;;;3.20;;
72573;SDS011;60603;52.548;13.420;2023-04-30T03:12:10;5.03;;;2.30;;
72573;SDS011;60603;52.548;13.420;2023-04-30T03:14:36;8.55;;;2.58;;
72573;SDS011;60603;52.548;13.420;2023-04-30T03:17:02;10.63;;;2.90;;
72573;SDS011;60603;52.548;13.420;2023-04-30T03:19:31;7.50;;;2.65;;
72573;SDS011;60603;52.548;13.420;2023-04-30T03:21:56;7.50;;;2.50;;
72573;SDS011;60603;52.548;13.420;2023-04-30T03:24:22;10.85;;;3.10;;
72573;SDS011;60603;52.548;13.420;2023-04-30T03:26:49;8.57;;;2.42;;
72573;SDS011;60603;52.548;13.420;2023-04-30T03:29:15;6.80;;;2.55;;
72573;SDS011;60603;52.548;13.420;2023-04-30T03:31:41;7.15;;;2.60;;
72573;SDS011;60603;52.548;13.420;2023-04-30T03:34:07;9.02;;;2.58;;
72573;SDS011;60603;52.548;13.420;2023-04-30T03:36:33;5.93;;;2.47;;
72573;SDS011;60603;52.548;13.420;2023-04-30T03:38:59;6.63;;;2.25;;
72573;SDS011;60603;52.548;13.420;2023-04-30T03:41:25;8.35;;;2.85;;
72573;SDS011;60603;52.548;13.420;2023-04-30T03:43:51;9.35;;;2.65;;
72573;SDS011;60603;52.548;13.420;2023-04-30T03:46:17;9.02;;;2.58;;
72573;SDS011;60603;52.548;13.420;2023-04-30T03:48:43;6.97;;;2.47;;
72573;SDS011;60603;52.548;13.420;2023-04-30T03:51:08;7.47;;;2.95;;
72573;SDS011;60603;52.548;13.420;2023-04-30T03:53:34;8.32;;;2.30;;
72573;SDS011;60603;52.548;13.420;2023-04-30T03:56:00;5.93;;;2.33;;
72573;SDS011;60603;52.548;13.420;2023-04-30T03:58:27;8.30;;;2.92;;
72573;SDS011;60603;52.548;13.420;2023-04-30T04:00:52;8.88;;;3.00;;
72573;SDS011;60603;52.548;13.420;2023-04-30T04:03:18;7.35;;;2.55;;
72573;SDS011;60603;52.548;13.420;2023-04-30T04:05:44;11.48;;;2.97;;
72573;SDS011;60603;52.548;13.420;2023-04-30T04:08:10;8.77;;;2.92;;
72573;SDS011;60603;52.548;13.420;2023-04-30T04:10:36;6.50;;;2.60;;
72573;SDS011;60603;52.548;13.420;2023-04-30T04:13:03;4.43;;;2.40;;
72573;SDS011;60603;52.548;13.420;2023-04-30T04:15:28;5.55;;;2.45;;
72573;SDS011;60603;52.548;13.420;2023-04-30T04:17:54;6.70;;;2.63;;
72573;SDS011;60603;52.548;13.420;2023-04-30T04:20:20;5.97;;;2.17;;
72573;SDS011;60603;52.548;13.420;2023-04-30T04:22:45;6.05;;;2.55;;
72573;SDS011;60603;52.548;13.420;2023-04-30T04:25:11;8.95;;;2.70;;
72573;SDS011;60603;52.548;13.420;2023-04-30T04:27:38;6.43;;;2.58;;
72573;SDS011;60603;52.548;13.420;2023-04-30T04:30:04;6.22;;;2.60;;
72573;SDS011;60603;52.548;13.420;2023-04-30T04:32:30;7.97;;;3.47;;
72573;SDS011;60603;52.548;13.420;2023-04-30T04:34:56;6.28;;;2.55;;
72573;SDS011;60603;52.548;13.420;2023-04-30T04:37:23;8.23;;;3.15;;
72573;SDS011;60603;52.548;13.420;2023-04-30T04:39:48;8.60;;;2.90;;
72573;SDS011;60603;52.548;13.420;2023-04-30T04:42:14;7.82;;;2.40;;
72573;SDS011;60603;52.548;13.420;2023-04-30T04:44:44;6.00;;;2.67;;
72573;SDS011;60603;52.548;13.420;2023-04-30T04:47:10;8.27;;;2.80;;
72573;SDS011;60603;52.548;13.420;2023-04-30T04:49:37;7.35;;;2.45;;
72573;SDS011;60603;52.548;13.420;2023-04-30T04:52:03;9.10;;;2.60;;
72573;SDS011;60603;52.548;13.420;2023-04-30T04:54:29;8.45;;;3.03;;
72573;SDS011;60603;52.548;13.420;2023-04-30T04:56:55;10.15;;;3.47;;
72573;SDS011;60603;52.548;13.420;2023-04-30T04:59:21;8.23;;;3.35;;
72573;SDS011;60603;52.548;13.420;2023-04-30T05:01:47;7.60;;;2.47;;
72573;SDS011;60603;52.548;13.420;2023-04-30T05:04:12;7.60;;;2.40;;
72573;SDS011;60603;52.548;13.420;2023-04-30T05:06:38;9.50;;;2.72;;
72573;SDS011;60603;52.548;13.420;2023-04-30T05:09:04;7.93;;;1.90;;
72573;SDS011;60603;52.548;13.420;2023-04-30T05:11:34;8.38;;;2.38;;
72573;SDS011;60603;52.548;13.420;2023-04-30T05:14:00;7.05;;;2.63;;
72573;SDS011;60603;52.548;13.420;2023-04-30T05:16:25;5.10;;;2.00;;
72573;SDS011;60603;52.548;13.420;2023-04-30T05:18:51;9.82;;;2.25;;
72573;SDS011;60603;52.548;13.420;2023-04-30T05:21:17;6.28;;;2.20;;
72573;SDS011;60603;52.548;13.420;2023-04-30T05:23:43;10.98;;;2.95;;
72573;SDS011;60603;52.548;13.420;2023-04-30T05:26:09;9.10;;;2.50;;
72573;SDS011;60603;52.548;13.420;2023-04-30T05:28:35;7.70;;;2.20;;
72573;SDS011;60603;52.548;13.420;2023-04-30T05:31:00;9.05;;;2.65;;
72573;SDS011;60603;52.548;13.420;2023-04-30T05:33:26;8.45;;;2.60;;
72573;SDS011;60603;52.548;13.420;2023-04-30T05:35:52;8.55;;;2.38;;
72573;SDS011;60603;52.548;13.420;2023-04-30T05:38:17;6.82;;;2.53;;
72573;SDS011;60603;52.548;13.420;2023-04-30T05:40:43;7.22;;;2.70;;
72573;SDS011;60603;52.548;13.420;2023-04-30T05:43:08;9.10;;;2.65;;
72573;SDS011;60603;52.548;13.420;2023-04-30T05:45:34;7.03;;;2.20;;
72573;SDS011;60603;52.548;13.420;2023-04-30T05:48:00;7.25;;;2.08;;
72573;SDS011;60603;52.548;13.420;2023-04-30T05:50:26;9.82;;;2.63;;
72573;SDS011;60603;52.548;13.420;2023-04-30T05:52:51;9.23;;;2.30;;
72573;SDS011;60603;52.548;13.420;2023-04-30T05:55:17;8.15;;;1.90;;
72573;SDS011;60603;52.548;13.420;2023-04-30T05:57:43;7.55;;;2.22;;
72573;SDS011;60603;52.548;13.420;2023-04-30T06:00:09;11.30;;;2.10;;
72573;SDS011;60603;52.548;13.420;2023-04-30T06:02:34;9.43;;;2.33;;
72573;SDS011;60603;52.548;13.420;2023-04-30T06:05:00;4.82;;;1.90;;
72573;SDS011;60603;52.548;13.420;2023-04-30T06:07:27;6.60;;;1.80;;
72573;SDS011;60603;52.548;13.420;2023-04-30T06:09:53;6.63;;;2.00;;
72573;SDS011;60603;52.548;13.420;2023-04-30T06:12:18;9.35;;;2.05;;
72573;SDS011;60603;52.548;13.420;2023-04-30T06:14:44;4.95;;;1.75;;
72573;SDS011;60603;52.548;13.420;2023-04-30T06:17:11;6.68;;;2.25;;
72573;SDS011;60603;52.548;13.420;2023-04-30T06:19:37;7.82;;;2.20;;
72573;SDS011;60603;52.548;13.420;2023-04-30T06:22:03;9.43;;;2.42;;
72573;SDS011;60603;52.548;13.420;2023-04-30T06:24:29;9.57;;;2.00;;
72573;SDS011;60603;52.548;13.420;2023-04-30T06:26:55;5.25;;;1.90;;
72573;SDS011;60603;52.548;13.420;2023-04-30T06:29:21;8.30;;;2.40;;
72573;SDS011;60603;52.548;13.420;2023-04-30T06:31:48;8.77;;;2.30;;
72573;SDS011;60603;52.548;13.420;2023-04-30T06:34:17;8.55;;;2.58;;
72573;SDS011;60603;52.548;13.420;2023-04-30T06:36:43;12.02;;;2.95;;
72573;SDS011;60603;52.548;13.420;2023-04-30T06:39:09;7.60;;;2.47;;
72573;SDS011;60603;52.548;13.420;2023-04-30T06:41:34;8.20;;;2.90;;
72573;SDS011;60603;52.548;13.420;2023-04-30T06:44:00;8.98;;;2.35;;
72573;SDS011;60603;52.548;13.420;2023-04-30T06:46:26;8.68;;;2.67;;
72573;SDS011;60603;52.548;13.420;2023-04-30T06:48:52;5.85;;;2.25;;
72573;SDS011;60603;52.548;13.420;2023-04-30T06:51:17;5.53;;;2.15;;
72573;SDS011;60603;52.548;13.420;2023-04-30T06:53:43;9.20;;;2.25;;
72573;SDS011;60603;52.548;13.420;2023-04-30T06:56:08;8.25;;;2.83;;
72573;SDS011;60603;52.548;13.420;2023-04-30T06:58:34;7.72;;;2.28;;
72573;SDS011;60603;52.548;13.420;2023-04-30T07:01:00;9.18;;;2.28;;
72573;SDS011;60603;52.548;13.420;2023-04-30T07:03:26;8.18;;;2.60;;
72573;SDS011;60603;52.548;13.420;2023-04-30T07:05:52;7.78;;;2.10;;
72573;SDS011;60603;52.548;13.420;2023-04-30T07:08:18;8.65;;;2.15;;
72573;SDS011;60603;52.548;13.420;2023-04-30T07:10:44;7.90;;;2.53;;
72573;SDS011;60603;52.548;13.420;2023-04-30T07:13:09;7.28;;;2.28;;
72573;SDS011;60603;52.548;13.420;2023-04-30T07:15:35;11.95;;;2.55;;
72573;SDS011;60603;52.548;13.420;2023-04-30T07:18:04;8.73;;;2.70;;
72573;SDS011;60603;52.548;13.420;2023-04-30T07:20:29;8.48;;;2.60;;
72573;SDS011;60603;52.548;13.420;2023-04-30T07:22:55;6.85;;;2.35;;
72573;SDS011;60603;52.548;13.420;2023-04-30T07:25:23;9.57;;;2.83;;
72573;SDS011;60603;52.548;13.420;2023-04-30T07:27:50;8.15;;;2.55;;
72573;SDS011;60603;52.548;13.420;2023-04-30T07:30:17;8.25;;;2.67;;
72573;SDS011;60603;52.548;13.420;2023-04-30T07:32:43;4.35;;;1.90;;
72573;SDS011;60603;52.548;13.420;2023-04-30T07:35:09;6.90;;;2.20;;
72573;SDS011;60603;52.548;13.420;2023-04-30T07:37:35;7.15;;;2.20;;
72573;SDS011;60603;52.548;13.420;2023-04-30T07:40:00;6.82;;;2.20;;
72573;SDS011;60603;52.548;13.420;2023-04-30T07:42:26;7.32;;;2.20;;
72573;SDS011;60603;52.548;13.420;2023-04-30T07:44:52;7.25;;;2.85;;
72573;SDS011;60603;52.548;13.420;2023-04-30T07:47:18;6.50;;;2.60;;
72573;SDS011;60603;52.548;13.420;2023-04-30T07:49:45;9.35;;;2.50;;
72573;SDS011;60603;52.548;13.420;2023-04-30T07:52:12;10.75;;;2.40;;
72573;SDS011;60603;52.548;13.420;2023-04-30T07:54:38;7.30;;;2.63;;
72573;SDS011;60603;52.548;13.420;2023-04-30T07:57:04;9.88;;;2.80;;
72573;SDS011;60603;52.548;13.420;2023-04-30T07:59:31;9.02;;;3.30;;
72573;SDS011;60603;52.548;13.420;2023-04-30T08:01:57;8.65;;;2.92;;
72573;SDS011;60603;52.548;13.420;2023-04-30T08:04:23;9.18;;;2.85;;
72573;SDS011;60603;52.548;13.420;2023-04-30T08:06:49;9.40;;;2.55;;
72573;SDS011;60603;52.548;13.420;2023-04-30T08:09:14;7.63;;;2.33;;
72573;SDS011;60603;52.548;13.420;2023-04-30T08:11:40;5.63;;;2.20;;
72573;SDS011;60603;52.548;13.420;2023-04-30T08:14:06;6.28;;;2.10;;
72573;SDS011;60603;52.548;13.420;2023-04-30T08:16:32;6.85;;;2.33;;
72573;SDS011;60603;52.548;13.420;2023-04-30T08:18:58;5.30;;;1.85;;
72573;SDS011;60603;52.548;13.420;2023-04-30T08:21:25;7.25;;;2.15;;
72573;SDS011;60603;52.548;13.420;2023-04-30T08:23:52;6.68;;;1.88;;
72573;SDS011;60603;52.548;13.420;2023-04-30T08:26:20;5.25;;;1.98;;
72573;SDS011;60603;52.548;13.420;2023-04-30T08:28:45;7.43;;;2.58;;
72573;SDS011;60603;52.548;13.420;2023-04-30T08:31:11;5.03;;;1.88;;
72573;SDS011;60603;52.548;13.420;2023-04-30T08:33:37;8.45;;;2.58;;
72573;SDS011;60603;52.548;13.420;2023-04-30T08:36:03;8.10;;;2.50;;
72573;SDS011;60603;52.548;13.420;2023-04-30T08:38:29;5.65;;;1.75;;
72573;SDS011;60603;52.548;13.420;2023-04-30T08:41:11;5.90;;;2.30;;
72573;SDS011;60603;52.548;13.420;2023-04-30T08:43:38;4.65;;;1.48;;
72573;SDS011;60603;52.548;13.420;2023-04-30T08:46:05;5.18;;;1.58;;
72573;SDS011;60603;52.548;13.420;2023-04-30T08:48:31;4.28;;;1.58;;
72573;SDS011;60603;52.548;13.420;2023-04-30T08:51:00;4.25;;;1.85;;
72573;SDS011;60603;52.548;13.420;2023-04-30T08:53:26;4.78;;;1.27;;
72573;SDS011;60603;52.548;13.420;2023-04-30T08:55:53;4.00;;;1.30;;
72573;SDS011;60603;52.548;13.420;2023-04-30T08:58:18;6.00;;;1.73;;
72573;SDS011;60603;52.548;13.420;2023-04-30T09:00:44;11.15;;;2.13;;
72573;SDS011;60603;52.548;13.420;2023-04-30T09:03:10;3.80;;;1.30;;
72573;SDS011;60603;52.548;13.420;2023-04-30T09:05:36;6.00;;;1.50;;
72573;SDS011;60603;52.548;13.420;2023-04-30T09:08:05;4.65;;;1.60;;
72573;SDS011;60603;52.548;13.420;2023-04-30T09:10:33;6.80;;;1.60;;
72573;SDS011;60603;52.548;13.420;2023-04-30T09:12:59;5.47;;;1.67;;
72573;SDS011;60603;52.548;13.420;2023-04-30T09:15:35;6.63;;;1.55;;
72573;SDS011;60603;52.548;13.420;2023-04-30T09:18:06;4.22;;;1.40;;
72573;SDS011;60603;52.548;13.420;2023-04-30T09:20:33;4.88;;;1.63;;
72573;SDS011;60603;52.548;13.420;2023-04-30T09:23:06;5.88;;;1.67;;
72573;SDS011;60603;52.548;13.420;2023-04-30T09:25:40;4.25;;;1.45;;
72573;SDS011;60603;52.548;13.420;2023-04-30T09:28:10;5.00;;;1.52;;
72573;SDS011;60603;52.548;13.420;2023-04-30T09:30:37;5.03;;;1.50;;
72573;SDS011;60603;52.548;13.420;2023-04-30T09:33:03;5.63;;;1.70;;
72573;SDS011;60603;52.548;13.420;2023-04-30T09:35:30;5.72;;;1.58;;
72573;SDS011;60603;52.548;13.420;2023-04-30T09:37:57;4.85;;;1.63;;
72573;SDS011;60603;52.548;13.420;2023-04-30T09:40:34;6.63;;;2.58;;
72573;SDS011;60603;52.548;13.420;2023-04-30T09:43:04;3.80;;;1.20;;
72573;SDS011;60603;52.548;13.420;2023-04-30T09:45:40;4.28;;;1.50;;
72573;SDS011;60603;52.548;13.420;2023-04-30T09:48:11;4.78;;;1.30;;
72573;SDS011;60603;52.548;13.420;2023-04-30T09:50:40;3.92;;;1.55;;
72573;SDS011;60603;52.548;13.420;2023-04-30T09:53:07;4.13;;;1.42;;
72573;SDS011;60603;52.548;13.420;2023-04-30T09:55:35;6.63;;;1.70;;
72573;SDS011;60603;52.548;13.420;2023-04-30T09:58:04;5.25;;;1.60;;
72573;SDS011;60603;52.548;13.420;2023-04-30T10:00:35;5.43;;;1.65;;
72573;SDS011;60603;52.548;13.420;2023-04-30T10:03:11;4.68;;;1.80;;
72573;SDS011;60603;52.548;13.420;2023-04-30T10:05:40;4.68;;;1.80;;
72573;SDS011;60603;52.548;13.420;2023-04-30T10:08:12;4.35;;;1.65;;
72573;SDS011;60603;52.548;13.420;2023-04-30T10:10:43;5.65;;;1.60;;
72573;SDS011;60603;52.548;13.420;2023-04-30T10:13:10;6.03;;;1.92;;
72573;SDS011;60603;52.548;13.420;2023-04-30T10:15:42;6.82;;;2.03;;
72573;SDS011;60603;52.548;13.420;2023-04-30T10:18:13;7.15;;;2.03;;
72573;SDS011;60603;52.548;13.420;2023-04-30T10:20:45;8.93;;;2.03;;
72573;SDS011;60603;52.548;13.420;2023-04-30T10:23:12;4.97;;;1.80;;
72573;SDS011;60603;52.548;13.420;2023-04-30T10:25:38;6.03;;;2.22;;
72573;SDS011;60603;52.548;13.420;2023-04-30T10:28:05;4.82;;;1.75;;
72573;SDS011;60603;52.548;13.420;2023-04-30T10:30:34;4.10;;;1.75;;
72573;SDS011;60603;52.548;13.420;2023-04-30T10:33:17;6.93;;;2.03;;
72573;SDS011;60603;52.548;13.420;2023-04-30T10:35:48;8.10;;;1.88;;
72573;SDS011;60603;52.548;13.420;2023-04-30T10:38:21;7.97;;;2.30;;
72573;SDS011;60603;52.548;13.420;2023-04-30T10:40:59;4.55;;;1.98;;
72573;SDS011;60603;52.548;13.420;2023-04-30T10:43:29;6.53;;;1.95;;
72573;SDS011;60603;52.548;13.420;2023-04-30T10:45:58;4.60;;;1.60;;
72573;SDS011;60603;52.548;13.420;2023-04-30T10:48:24;5.93;;;1.75;;
72573;SDS011;60603;52.548;13.420;2023-04-30T10:50:52;4.80;;;1.65;;
72573;SDS011;60603;52.548;13.420;2023-04-30T10:53:20;6.20;;;2.13;;
72573;SDS011;60603;52.548;13.420;2023-04-30T10:55:51;6.00;;;1.80;;
72573;SDS011;60603;52.548;13.420;2023-04-30T11:01:14;4.13;;;1.77;;
72573;SDS011;60603;52.548;13.420;2023-04-30T11:03:42;7.00;;;1.92;;
72573;SDS011;60603;52.548;13.420;2023-04-30T11:09:15;6.78;;;1.60;;
72573;SDS011;60603;52.548;13.420;2023-04-30T11:11:45;5.75;;;1.63;;
72573;SDS011;60603;52.548;13.420;2023-04-30T11:14:11;7.28;;;2.25;;
72573;SDS011;60603;52.548;13.420;2023-04-30T11:16:39;5.85;;;1.63;;
72573;SDS011;60603;52.548;13.420;2023-04-30T11:19:12;5.72;;;1.70;;
72573;SDS011;60603;52.548;13.420;2023-04-30T11:21:39;4.38;;;1.52;;
72573;SDS011;60603;52.548;13.420;2023-04-30T11:24:05;4.93;;;1.63;;
72573;SDS011;60603;52.548;13.420;2023-04-30T11:29:30;6.32;;;1.70;;
72573;SDS011;60603;52.548;13.420;2023-04-30T11:31:59;5.25;;;1.73;;
72573;SDS011;60603;52.548;13.420;2023-04-30T11:34:25;5.03;;;1.60;;
72573;SDS011;60603;52.548;13.420;2023-04-30T11:36:52;7.65;;;2.20;;
72573;SDS011;60603;52.548;13.420;2023-04-30T11:39:19;4.95;;;1.83;;
72573;SDS011;60603;52.548;13.420;2023-04-30T11:41:45;5.18;;;1.98;;
72573;SDS011;60603;52.548;13.420;2023-04-30T11:44:21;4.13;;;1.60;;
72573;SDS011;60603;52.548;13.420;2023-04-30T11:46:48;7.25;;;1.70;;
72573;SDS011;60603;52.548;13.420;2023-04-30T11:49:14;7.03;;;1.80;;
72573;SDS011;60603;52.548;13.420;2023-04-30T11:51:40;5.05;;;1.77;;
72573;SDS011;60603;52.548;13.420;2023-04-30T11:54:07;5.75;;;1.90;;
72573;SDS011;60603;52.548;13.420;2023-04-30T11:56:36;5.90;;;2.10;;
72573;SDS011;60603;52.548;13.420;2023-04-30T11:59:08;5.25;;;1.92;;
72573;SDS011;60603;52.548;13.420;2023-04-30T12:01:34;6.65;;;1.58;;
72573;SDS011;60603;52.548;13.420;2023-04-30T12:04:01;5.43;;;2.20;;
72573;SDS011;60603;52.548;13.420;2023-04-30T12:06:28;5.85;;;1.70;;
72573;SDS011;60603;52.548;13.420;2023-04-30T12:08:55;5.90;;;1.83;;
72573;SDS011;60603;52.548;13.420;2023-04-30T12:11:23;4.93;;;1.90;;
72573;SDS011;60603;52.548;13.420;2023-04-30T12:13:51;4.65;;;1.80;;
72573;SDS011;60603;52.548;13.420;2023-04-30T12:16:21;7.45;;;1.92;;
72573;SDS011;60603;52.548;13.420;2023-04-30T12:18:48;6.10;;;1.65;;
72573;SDS011;60603;52.548;13.420;2023-04-30T12:21:16;7.03;;;1.88;;
72573;SDS011;60603;52.548;13.420;2023-04-30T12:23:42;6.65;;;1.88;;
72573;SDS011;60603;52.548;13.420;2023-04-30T12:26:09;6.50;;;1.83;;
72573;SDS011;60603;52.548;13.420;2023-04-30T12:28:35;4.97;;;1.75;;
72573;SDS011;60603;52.548;13.420;2023-04-30T12:31:01;5.97;;;1.70;;
72573;SDS011;60603;52.548;13.420;2023-04-30T12:33:31;4.18;;;1.63;;
72573;SDS011;60603;52.548;13.420;2023-04-30T12:35:57;4.05;;;2.25;;
72573;SDS011;60603;52.548;13.420;2023-04-30T12:38:23;4.20;;;1.60;;
72573;SDS011;60603;52.548;13.420;2023-04-30T12:40:49;5.28;;;1.73;;
72573;SDS011;60603;52.548;13.420;2023-04-30T12:43:16;7.00;;;2.10;;
72573;SDS011;60603;52.548;13.420;2023-04-30T12:45:53;9.55;;;2.25;;
72573;SDS011;60603;52.548;13.420;2023-04-30T12:48:20;7.07;;;2.30;;
72573;SDS011;60603;52.548;13.420;2023-04-30T12:50:55;4.22;;;1.77;;
72573;SDS011;60603;52.548;13.420;2023-04-30T12:53:23;6.03;;;1.88;;
72573;SDS011;60603;52.548;13.420;2023-04-30T12:56:06;6.32;;;1.95;;
72573;SDS011;60603;52.548;13.420;2023-04-30T12:58:39;5.20;;;1.77;;
72573;SDS011;60603;52.548;13.420;2023-04-30T13:01:14;6.80;;;2.35;;
72573;SDS011;60603;52.548;13.420;2023-04-30T13:03:41;6.63;;;1.90;;
72573;SDS011;60603;52.548;13.420;2023-04-30T13:06:07;6.43;;;1.80;;
72573;SDS011;60603;52.548;13.420;2023-04-30T13:08:34;5.28;;;2.00;;
72573;SDS011;60603;52.548;13.420;2023-04-30T13:11:00;6.97;;;2.38;;
72573;SDS011;60603;52.548;13.420;2023-04-30T13:13:25;4.97;;;1.85;;
72573;SDS011;60603;52.548;13.420;2023-04-30T13:15:51;6.35;;;1.77;;
72573;SDS011;60603;52.548;13.420;2023-04-30T13:18:17;5.40;;;1.90;;
72573;SDS011;60603;52.548;13.420;2023-04-30T13:20:43;5.50;;;1.67;;
72573;SDS011;60603;52.548;13.420;2023-04-30T13:23:08;5.20;;;1.85;;
72573;SDS011;60603;52.548;13.420;2023-04-30T13:25:37;6.70;;;2.33;;
72573;SDS011;60603;52.548;13.420;2023-04-30T13:28:03;7.10;;;2.17;;
72573;SDS011;60603;52.548;13.420;2023-04-30T13:30:29;6.97;;;2.10;;
72573;SDS011;60603;52.548;13.420;2023-04-30T13:32:54;3.42;;;1.40;;
72573;SDS011;60603;52.548;13.420;2023-04-30T13:35:20;7.15;;;2.53;;
72573;SDS011;60603;52.548;13.420;2023-04-30T13:37:46;5.70;;;1.95;;
72573;SDS011;60603;52.548;13.420;2023-04-30T13:40:17;6.75;;;1.85;;
72573;SDS011;60603;52.548;13.420;2023-04-30T13:42:44;5.93;;;1.75;;
72573;SDS011;60603;52.548;13.420;2023-04-30T13:45:10;5.18;;;2.10;;
72573;SDS011;60603;52.548;13.420;2023-04-30T13:47:36;8.10;;;2.03;;
72573;SDS011;60603;52.548;13.420;2023-04-30T13:50:02;9.77;;;2.25;;
72573;SDS011;60603;52.548;13.420;2023-04-30T13:52:29;7.70;;;2.05;;
72573;SDS011;60603;52.548;13.420;2023-04-30T13:54:55;8.52;;;1.83;;
72573;SDS011;60603;52.548;13.420;2023-04-30T13:57:21;6.47;;;1.63;;
72573;SDS011;60603;52.548;13.420;2023-04-30T13:59:48;3.80;;;1.70;;
72573;SDS011;60603;52.548;13.420;2023-04-30T14:02:13;4.47;;;1.77;;
72573;SDS011;60603;52.548;13.420;2023-04-30T14:04:39;5.50;;;1.77;;
72573;SDS011;60603;52.548;13.420;2023-04-30T14:07:05;5.38;;;1.80;;
72573;SDS011;60603;52.548;13.420;2023-04-30T14:09:31;5.50;;;2.40;;
72573;SDS011;60603;52.548;13.420;2023-04-30T14:11:56;5.63;;;2.13;;
72573;SDS011;60603;52.548;13.420;2023-04-30T14:14:26;4.97;;;1.88;;
72573;SDS011;60603;52.548;13.420;2023-04-30T14:16:52;7.60;;;1.95;;
72573;SDS011;60603;52.548;13.420;2023-04-30T14:19:18;7.80;;;1.83;;
72573;SDS011;60603;52.548;13.420;2023-04-30T14:21:45;4.65;;;1.60;;
72573;SDS011;60603;52.548;13.420;2023-04-30T14:24:11;5.38;;;1.75;;
72573;SDS011;60603;52.548;13.420;2023-04-30T14:26:37;4.75;;;2.10;;
72573;SDS011;60603;52.548;13.420;2023-04-30T14:29:05;4.80;;;1.60;;
72573;SDS011;60603;52.548;13.420;2023-04-30T14:31:31;5.63;;;1.88;;
72573;SDS011;60603;52.548;13.420;2023-04-30T14:33:57;6.97;;;1.90;;
72573;SDS011;60603;52.548;13.420;2023-04-30T14:36:22;6.65;;;1.58;;
72573;SDS011;60603;52.548;13.420;2023-04-30T14:38:48;5.40;;;1.88;;
72573;SDS011;60603;52.548;13.420;2023-04-30T14:41:14;4.68;;;1.85;;
72573;SDS011;60603;52.548;13.420;2023-04-30T14:43:40;6.25;;;1.65;;
72573;SDS011;60603;52.548;13.420;2023-04-30T14:46:05;6.90;;;2.45;;
72573;SDS011;60603;52.548;13.420;2023-04-30T14:48:31;7.10;;;2.55;;
72573;SDS011;60603;52.548;13.420;2023-04-30T14:50:57;8.25;;;2.10;;
72573;SDS011;60603;52.548;13.420;2023-04-30T14:53:23;5.00;;;1.80;;